Terminal Aerodrome Forecast
Issued by NWS Louisville, KY

Current Version | Previous Version | Text Only | Print | Product List | Glossary On
Versions: 1 2 3 4 5 6 7 8 9 10 11 12 13 14 15 16
000
FTUS43 KLMK 192323
TAFBWG
TAF
KBWG 192323Z 2000/2024 19008KT P6SM BKN040
     FM200300 20007KT P6SM BKN040 WS020/23040KT
     FM200700 20007KT P6SM BKN035 WS020/23045KT
     FM201200 20009KT P6SM BKN035
     FM201600 20011KT P6SM BKN028=

USA.gov is the U.S. government's official web portal to all federal, state and local government web resources and services.